Five Points, North Carolina
Current Conditions -  °F | °C
As of 3:51 AM on Tuesday 21 Oct 2014 (Local Time) from KRDU Reporting Station
Broken Clouds Broken Clouds  
Wind Chill: 57°   Ceiling: 13000
Heat Index: 57°   Visibility: 10mi
Dew Point: 50°   Wind: 0mph
Humidity: 77%   Direction: NA
Pressure: 29.92"   Gusts: NA
Location:  35.8084°N, 78.6471°W
Report Text: KRDU 210751Z 00000KT 10SM SCT095 BKN130 BKN250 14/10 A2992 RMK AO2 SLP130 T01390100
Loading
Personal Weather Stations






























Interactive Weather Map
Tropical Storm Tracking
New forecast layout! Learn more

10-Day Weather Forecast

Advertisements
Track Severe Weather on mobile